Izmir/Cumaovasi, Turkey
Current Conditions -  °F | °C
As of 4:20 PM on Friday 19 Dec 2014 (Local Time) from LTBJ Reporting Station
Few Clouds Few Clouds  
Wind Chill: 59°   Ceiling: Unl
Heat Index: 59°   Visibility: 6mi
Dew Point: 46°   Wind: 16mph
Humidity: 63%   Direction: 360°N
Pressure: 30.09"   Gusts: NA
Location:  38.21°N, 27.17°E
Report Text: LTBJ 191320Z 36014KT 9999 FEW030 15/08 Q1019 NOSIG
Loading
Personal Weather Stations






























Interactive Weather Map New forecast layout! Learn more

10-Day Weather Forecast

Advertisements
Track Severe Weather on mobile